Time;durP1;ratioP1;P1;durP2;ratioP2;P2;SDS_P1;SDS_P2;PMS_P1;PMS_P2;Temp;Humidity;BMP_temperature;BMP_pressure;BME280_temperature;BME280_humidity;BME280_pressure;Samples;Min_cycle;Max_cycle;Signal;HPM_P1;HPM_P2
2023/08/07 00:00:16;;;;;;;12.57;2.93;;;11.20;99.90;;;;;;497630;239;27941;-78
2023/08/07 00:02:17;;;;;;;6.17;2.77;;;11.20;99.90;;;;;;497643;239;28165;-78
2023/08/07 00:04:19;;;;;;;6.67;2.70;;;11.20;99.90;;;;;;497608;239;28170;-77
2023/08/07 00:06:20;;;;;;;4.40;2.67;;;11.20;99.90;;;;;;497607;239;28027;-79
2023/08/07 00:08:21;;;;;;;6.97;3.00;;;11.20;99.90;;;;;;497584;239;28249;-78
2023/08/07 00:10:22;;;;;;;8.33;2.73;;;11.20;99.90;;;;;;497578;239;28467;-78
2023/08/07 00:12:24;;;;;;;7.23;2.67;;;11.20;99.90;;;;;;497604;239;28705;-78
2023/08/07 00:14:25;;;;;;;8.37;2.27;;;11.20;99.90;;;;;;497565;239;28537;-78
2023/08/07 00:16:26;;;;;;;13.80;3.23;;;11.20;99.90;;;;;;497557;239;28450;-78
2023/08/07 00:18:27;;;;;;;6.10;2.70;;;11.20;99.90;;;;;;497563;239;27942;-78
2023/08/07 00:20:29;;;;;;;14.77;2.90;;;11.10;99.90;;;;;;497641;239;28055;-78
2023/08/07 00:22:30;;;;;;;2.77;2.17;;;11.10;99.90;;;;;;497648;239;27885;-78
2023/08/07 00:24:31;;;;;;;9.83;2.50;;;11.10;99.90;;;;;;497648;239;27974;-78
2023/08/07 00:26:32;;;;;;;5.10;2.50;;;11.10;99.90;;;;;;497611;239;27794;-78
2023/08/07 00:28:34;;;;;;;15.77;2.80;;;11.10;99.90;;;;;;497628;239;28173;-77
2023/08/07 00:30:35;;;;;;;3.80;2.87;;;11.10;99.90;;;;;;497681;239;28106;-77
2023/08/07 00:32:36;;;;;;;4.73;2.70;;;11.10;99.90;;;;;;497678;239;27934;-78
2023/08/07 00:34:37;;;;;;;9.40;2.70;;;11.10;99.90;;;;;;497665;239;29571;-77
2023/08/07 00:36:39;;;;;;;4.63;2.47;;;11.10;99.90;;;;;;497634;239;29022;-78
2023/08/07 00:38:40;;;;;;;15.33;3.00;;;11.00;99.90;;;;;;497660;239;28746;-78
2023/08/07 00:40:41;;;;;;;4.13;3.03;;;11.10;99.90;;;;;;497680;239;27945;-78
2023/08/07 00:42:43;;;;;;;5.37;2.80;;;11.10;99.90;;;;;;497646;239;28068;-77
2023/08/07 00:44:44;;;;;;;7.33;3.40;;;11.10;99.90;;;;;;497635;239;27972;-79
2023/08/07 00:46:45;;;;;;;7.53;2.87;;;11.10;99.90;;;;;;497614;239;27895;-78
2023/08/07 00:48:46;;;;;;;10.70;3.00;;;11.00;99.90;;;;;;497588;239;27929;-78
2023/08/07 00:50:48;;;;;;;5.97;2.70;;;11.10;99.90;;;;;;497628;239;27869;-78
2023/08/07 00:52:49;;;;;;;6.30;2.80;;;11.10;99.90;;;;;;497619;239;27927;-78
2023/08/07 00:54:50;;;;;;;6.47;2.50;;;11.10;99.90;;;;;;497612;239;28003;-78
2023/08/07 00:56:51;;;;;;;6.03;2.43;;;11.00;99.90;;;;;;497623;239;27923;-78
2023/08/07 00:58:53;;;;;;;8.97;2.47;;;11.00;99.90;;;;;;497655;239;28341;-78
2023/08/07 01:00:54;;;;;;;3.40;2.70;;;11.00;99.90;;;;;;497677;239;28295;-77
2023/08/07 01:02:55;;;;;;;6.80;2.80;;;11.00;99.90;;;;;;497638;239;28625;-78
2023/08/07 01:04:56;;;;;;;6.10;2.40;;;11.00;99.90;;;;;;497651;239;28298;-78
2023/08/07 01:06:58;;;;;;;3.93;2.83;;;10.90;99.90;;;;;;497644;239;27833;-78
2023/08/07 01:08:59;;;;;;;9.83;3.20;;;10.90;99.90;;;;;;497642;239;28050;-78
2023/08/07 01:11:00;;;;;;;7.73;3.13;;;10.80;99.90;;;;;;497602;239;27882;-79
2023/08/07 01:13:01;;;;;;;6.73;2.97;;;10.90;99.90;;;;;;497634;239;27789;-78
2023/08/07 01:15:03;;;;;;;5.10;2.70;;;10.90;99.90;;;;;;497638;239;27859;-78
2023/08/07 01:17:04;;;;;;;4.30;2.73;;;10.90;99.90;;;;;;497566;239;28067;-78
2023/08/07 01:19:05;;;;;;;5.00;2.87;;;10.90;99.90;;;;;;497632;239;28038;-78
2023/08/07 01:21:06;;;;;;;3.20;2.70;;;10.90;99.90;;;;;;497617;239;28105;-79
2023/08/07 01:23:08;;;;;;;6.13;3.00;;;10.90;99.90;;;;;;497611;239;28523;-78
2023/08/07 01:25:09;;;;;;;7.77;3.23;;;10.90;99.90;;;;;;497641;239;28462;-78
2023/08/07 01:27:10;;;;;;;7.70;3.13;;;10.90;99.90;;;;;;497653;239;28730;-78
2023/08/07 01:29:11;;;;;;;6.10;2.50;;;10.90;99.90;;;;;;497650;239;27960;-78
2023/08/07 01:31:13;;;;;;;4.57;2.50;;;10.90;99.90;;;;;;497648;239;27840;-78
2023/08/07 01:33:14;;;;;;;7.40;2.60;;;10.90;99.90;;;;;;497634;239;28146;-78
2023/08/07 01:35:15;;;;;;;6.30;2.97;;;10.90;99.90;;;;;;497626;239;28137;-78
2023/08/07 01:37:16;;;;;;;6.20;3.07;;;10.90;99.90;;;;;;497659;239;28500;-78
2023/08/07 01:39:18;;;;;;;24.43;3.10;;;10.90;99.90;;;;;;497630;239;27963;-78
2023/08/07 01:41:19;;;;;;;7.40;3.10;;;11.00;99.90;;;;;;497665;239;27995;-78
2023/08/07 01:43:20;;;;;;;7.57;2.60;;;10.90;99.90;;;;;;497619;239;28023;-78
2023/08/07 01:45:21;;;;;;;6.97;2.80;;;11.00;99.90;;;;;;497599;239;28095;-78
2023/08/07 01:47:23;;;;;;;8.13;3.33;;;11.00;99.90;;;;;;497608;239;28430;-77
2023/08/07 01:49:24;;;;;;;4.17;2.87;;;10.90;99.90;;;;;;497597;239;28474;-78
2023/08/07 01:51:25;;;;;;;6.60;2.97;;;10.90;99.90;;;;;;497652;239;28443;-77
2023/08/07 01:53:26;;;;;;;5.03;2.70;;;10.90;99.90;;;;;;497639;239;27793;-78
2023/08/07 01:55:28;;;;;;;7.10;3.10;;;10.90;99.90;;;;;;497637;239;28157;-78
2023/08/07 01:57:30;;;;;;;6.90;2.83;;;10.90;99.90;;;;;;497656;239;28064;-78
2023/08/07 01:59:30;;;;;;;7.60;3.20;;;10.90;99.90;;;;;;497576;239;27896;-78
2023/08/07 02:01:31;;;;;;;6.33;3.10;;;10.90;99.90;;;;;;497648;239;28042;-77
2023/08/07 02:03:33;;;;;;;7.87;2.90;;;10.80;99.90;;;;;;497645;239;28007;-78
2023/08/07 02:05:34;;;;;;;6.27;2.60;;;10.80;99.90;;;;;;497661;239;28007;-78
2023/08/07 02:07:35;;;;;;;6.60;2.83;;;10.80;99.90;;;;;;497708;239;28034;-77
2023/08/07 02:09:36;;;;;;;7.93;3.00;;;10.80;99.90;;;;;;497664;239;27891;-78
2023/08/07 02:11:38;;;;;;;3.00;2.50;;;10.90;99.90;;;;;;497665;239;28627;-78
2023/08/07 02:13:39;;;;;;;8.80;3.00;;;10.90;99.90;;;;;;497683;239;28986;-79
2023/08/07 02:15:40;;;;;;;9.63;3.90;;;10.90;99.90;;;;;;497685;239;28291;-78
2023/08/07 02:17:42;;;;;;;6.90;3.03;;;10.90;99.90;;;;;;497710;239;28491;-78
2023/08/07 02:19:43;;;;;;;7.33;3.20;;;10.90;99.90;;;;;;497637;239;27925;-79
2023/08/07 02:21:44;;;;;;;8.73;2.80;;;10.80;99.90;;;;;;497625;239;28091;-78
2023/08/07 02:23:45;;;;;;;8.00;3.20;;;10.80;99.90;;;;;;497647;239;27983;-78
2023/08/07 02:25:46;;;;;;;5.90;3.27;;;10.80;99.90;;;;;;497662;239;28035;-78
2023/08/07 02:27:48;;;;;;;9.63;4.10;;;10.80;99.90;;;;;;497670;239;27963;-78
2023/08/07 02:29:50;;;;;;;6.27;3.80;;;10.80;99.90;;;;;;497672;239;28159;-78
2023/08/07 02:31:50;;;;;;;6.57;3.17;;;10.80;99.90;;;;;;497528;239;27886;-78
2023/08/07 02:33:51;;;;;;;6.23;3.50;;;10.80;99.90;;;;;;497640;239;28081;-77
2023/08/07 02:35:53;;;;;;;7.13;3.40;;;10.80;99.90;;;;;;497634;239;28126;-78
2023/08/07 02:37:54;;;;;;;8.90;3.23;;;10.90;99.90;;;;;;497666;239;28529;-78
2023/08/07 02:39:55;;;;;;;5.33;3.13;;;10.80;99.90;;;;;;497645;239;28339;-78
2023/08/07 02:41:56;;;;;;;6.70;3.47;;;10.80;99.90;;;;;;497637;239;28584;-78
2023/08/07 02:43:58;;;;;;;6.23;3.37;;;10.80;99.90;;;;;;497660;239;28361;-78
2023/08/07 02:45:59;;;;;;;11.13;3.67;;;10.80;99.90;;;;;;497582;239;27904;-78
2023/08/07 02:48:00;;;;;;;5.50;3.57;;;10.80;99.90;;;;;;497629;239;28063;-78
2023/08/07 02:50:01;;;;;;;5.63;3.33;;;10.90;99.90;;;;;;497648;239;27905;-78
2023/08/07 02:52:03;;;;;;;9.67;3.67;;;10.80;99.90;;;;;;497604;239;28147;-78
2023/08/07 02:54:04;;;;;;;7.97;3.63;;;10.80;99.90;;;;;;497643;239;27935;-78
2023/08/07 02:56:05;;;;;;;13.37;3.93;;;10.80;99.90;;;;;;497663;239;27910;-77
2023/08/07 02:58:06;;;;;;;6.90;3.33;;;10.80;99.90;;;;;;497684;239;27929;-77
2023/08/07 03:00:08;;;;;;;9.30;3.73;;;10.80;99.90;;;;;;497655;239;28028;-78
2023/08/07 03:02:09;;;;;;;8.93;3.77;;;10.80;99.90;;;;;;497615;239;28588;-78
2023/08/07 03:04:10;;;;;;;9.80;3.50;;;10.80;99.90;;;;;;497632;239;28484;-78
2023/08/07 03:06:11;;;;;;;8.07;3.40;;;10.80;99.90;;;;;;497674;239;28382;-79
2023/08/07 03:08:13;;;;;;;6.70;4.00;;;10.80;99.90;;;;;;497624;239;28116;-78
2023/08/07 03:10:14;;;;;;;3.43;2.90;;;10.80;99.90;;;;;;497637;239;27704;-78
2023/08/07 03:12:15;;;;;;;6.17;3.60;;;10.80;99.90;;;;;;497615;239;28026;-78
2023/08/07 03:14:16;;;;;;;5.50;3.40;;;10.80;99.90;;;;;;497656;239;28045;-78
2023/08/07 03:16:18;;;;;;;4.93;3.07;;;10.80;99.90;;;;;;497624;239;28086;-78
2023/08/07 03:18:19;;;;;;;5.77;3.03;;;10.80;99.90;;;;;;497574;239;27841;-78
2023/08/07 03:20:20;;;;;;;6.47;2.80;;;10.80;99.90;;;;;;497614;239;28028;-78
2023/08/07 03:22:21;;;;;;;5.47;3.17;;;10.80;99.90;;;;;;497596;239;27980;-78
2023/08/07 03:24:23;;;;;;;9.53;3.50;;;10.80;99.90;;;;;;497661;239;28052;-77
2023/08/07 03:26:24;;;;;;;7.10;3.33;;;10.80;99.90;;;;;;497669;239;28385;-78
2023/08/07 03:28:25;;;;;;;3.80;2.87;;;10.80;99.90;;;;;;497630;239;28563;-78
2023/08/07 03:30:26;;;;;;;7.03;3.17;;;10.80;99.90;;;;;;497631;239;28598;-78
2023/08/07 03:32:28;;;;;;;4.23;3.00;;;10.80;99.90;;;;;;497584;239;27840;-78
2023/08/07 03:34:29;;;;;;;8.27;3.57;;;10.80;99.90;;;;;;497636;239;27832;-78
2023/08/07 03:36:30;;;;;;;4.43;3.27;;;10.80;99.90;;;;;;497664;239;28028;-78
2023/08/07 03:38:31;;;;;;;10.53;3.07;;;10.80;99.90;;;;;;497644;239;27946;-77
2023/08/07 03:40:33;;;;;;;6.50;3.10;;;10.80;99.90;;;;;;497669;239;27885;-78
2023/08/07 03:42:34;;;;;;;9.23;4.37;;;10.80;99.90;;;;;;497645;239;28038;-78
2023/08/07 03:44:35;;;;;;;5.50;3.63;;;10.80;99.90;;;;;;497677;239;28034;-78
2023/08/07 03:46:36;;;;;;;13.00;3.73;;;10.80;99.90;;;;;;497639;239;27936;-78
2023/08/07 03:48:38;;;;;;;6.63;3.60;;;10.80;99.90;;;;;;497681;239;28071;-78
2023/08/07 03:50:39;;;;;;;8.50;3.10;;;10.80;99.90;;;;;;497683;239;28885;-78
2023/08/07 03:52:40;;;;;;;7.93;3.97;;;10.80;99.90;;;;;;497683;239;28387;-78
2023/08/07 03:54:41;;;;;;;5.20;3.70;;;10.80;99.90;;;;;;497681;239;28319;-78
2023/08/07 03:56:43;;;;;;;5.93;4.17;;;10.80;99.90;;;;;;497695;239;27903;-78
2023/08/07 03:58:44;;;;;;;8.23;3.80;;;10.80;99.90;;;;;;497657;239;27922;-78
2023/08/07 04:00:45;;;;;;;8.40;4.30;;;10.80;99.90;;;;;;497657;239;27907;-78
2023/08/07 04:02:46;;;;;;;7.07;3.67;;;10.80;99.90;;;;;;497682;239;28060;-78
2023/08/07 04:04:48;;;;;;;5.83;3.90;;;10.80;99.90;;;;;;497651;239;28081;-78
2023/08/07 04:06:49;;;;;;;8.03;3.90;;;10.80;99.90;;;;;;497662;239;27881;-78
2023/08/07 04:08:50;;;;;;;7.77;3.80;;;10.80;99.90;;;;;;497654;239;27958;-78
2023/08/07 04:10:51;;;;;;;4.70;3.80;;;10.80;99.90;;;;;;497647;239;28037;-78
2023/08/07 04:12:53;;;;;;;4.47;3.23;;;10.70;99.90;;;;;;497659;239;28040;-77
2023/08/07 04:14:54;;;;;;;8.37;3.70;;;10.80;99.90;;;;;;497688;239;28484;-78
2023/08/07 04:16:55;;;;;;;12.40;3.97;;;10.80;99.90;;;;;;497661;239;28365;-78
2023/08/07 04:18:56;;;;;;;6.37;3.57;;;10.80;99.90;;;;;;497651;239;28668;-78
2023/08/07 04:20:58;;;;;;;3.90;3.40;;;10.80;99.90;;;;;;497666;239;27702;-78
2023/08/07 04:22:59;;;;;;;6.43;3.17;;;10.80;99.90;;;;;;497692;239;27886;-78
2023/08/07 04:25:00;;;;;;;6.00;3.60;;;10.80;99.90;;;;;;497645;239;28033;-78
2023/08/07 04:27:01;;;;;;;6.77;3.30;;;10.80;99.90;;;;;;497664;239;27889;-78
2023/08/07 04:29:03;;;;;;;4.83;3.50;;;10.80;99.90;;;;;;497647;239;27961;-78
2023/08/07 04:31:04;;;;;;;7.60;3.70;;;10.80;99.90;;;;;;497671;239;28432;-78
2023/08/07 04:33:05;;;;;;;4.40;3.77;;;10.80;99.90;;;;;;497676;239;27887;-78
2023/08/07 04:35:06;;;;;;;8.83;3.77;;;10.90;99.90;;;;;;497670;239;27978;-78
2023/08/07 04:37:08;;;;;;;5.53;3.53;;;10.80;99.90;;;;;;497638;239;27949;-78
2023/08/07 04:39:09;;;;;;;13.67;4.07;;;10.80;99.90;;;;;;497645;239;28300;-78
2023/08/07 04:41:11;;;;;;;4.77;3.80;;;10.80;99.90;;;;;;497677;239;28536;-78
2023/08/07 04:43:12;;;;;;;9.80;3.90;;;10.80;99.90;;;;;;497601;239;28494;-78
2023/08/07 04:45:13;;;;;;;9.63;3.10;;;10.80;99.90;;;;;;497693;239;27834;-78
2023/08/07 04:47:14;;;;;;;7.17;3.50;;;10.80;99.90;;;;;;497631;239;27963;-78
2023/08/07 04:49:15;;;;;;;11.13;3.57;;;10.90;99.90;;;;;;497657;239;27998;-78
2023/08/07 04:51:17;;;;;;;5.53;3.43;;;10.90;99.90;;;;;;497679;239;27954;-78
2023/08/07 04:53:18;;;;;;;10.07;3.87;;;10.90;99.90;;;;;;497662;239;27964;-78
2023/08/07 04:55:19;;;;;;;9.67;3.60;;;10.90;99.90;;;;;;497641;239;28047;-78
2023/08/07 04:57:20;;;;;;;6.87;3.20;;;10.90;99.90;;;;;;497619;239;28145;-78
2023/08/07 04:59:22;;;;;;;7.03;4.30;;;10.90;99.90;;;;;;497668;239;27941;-78
2023/08/07 05:01:23;;;;;;;6.73;3.40;;;10.90;99.90;;;;;;497655;239;28696;-78
2023/08/07 05:03:24;;;;;;;7.00;3.63;;;10.90;99.90;;;;;;497661;239;28329;-78
2023/08/07 05:05:25;;;;;;;5.57;3.37;;;11.00;99.90;;;;;;497673;239;28471;-78
2023/08/07 05:07:27;;;;;;;7.63;4.60;;;11.00;99.90;;;;;;497634;239;28341;-78
2023/08/07 05:09:28;;;;;;;5.07;3.10;;;11.00;99.90;;;;;;497671;239;27961;-78
2023/08/07 05:11:29;;;;;;;4.80;3.27;;;11.10;99.90;;;;;;497657;239;28030;-78
2023/08/07 05:13:30;;;;;;;6.73;3.40;;;11.00;99.90;;;;;;497679;239;27784;-79
2023/08/07 05:15:32;;;;;;;10.00;3.90;;;11.10;99.90;;;;;;497665;239;28021;-79
2023/08/07 05:17:33;;;;;;;9.37;3.27;;;11.10;99.90;;;;;;497636;239;27909;-78
2023/08/07 05:19:34;;;;;;;15.63;3.53;;;11.10;99.90;;;;;;497684;239;27907;-78
2023/08/07 05:21:35;;;;;;;5.40;3.50;;;11.10;99.90;;;;;;497692;239;28105;-78
2023/08/07 05:23:37;;;;;;;6.60;3.70;;;11.10;99.90;;;;;;497649;239;27988;-78
2023/08/07 05:25:38;;;;;;;8.90;3.80;;;11.10;99.90;;;;;;497663;239;28718;-78
2023/08/07 05:27:40;;;;;;;4.87;3.53;;;11.00;99.90;;;;;;497679;239;29268;-79
2023/08/07 05:29:44;;;;;;;15.60;4.13;;;11.00;99.90;;;;;;497620;239;28446;-78
2023/08/07 05:31:45;;;;;;;8.60;3.70;;;11.00;99.90;;;;;;497706;239;28102;-78
2023/08/07 05:33:46;;;;;;;5.37;3.30;;;11.00;99.90;;;;;;497680;239;28112;-78
2023/08/07 05:35:47;;;;;;;5.87;4.30;;;11.00;99.90;;;;;;497689;239;27948;-78
2023/08/07 05:37:49;;;;;;;9.60;3.40;;;11.00;99.90;;;;;;497685;239;28069;-78
2023/08/07 05:39:50;;;;;;;4.87;2.87;;;10.90;99.90;;;;;;497681;239;28565;-78
2023/08/07 05:41:53;;;;;;;6.57;3.80;;;10.90;99.90;;;;;;497664;239;28384;-78
2023/08/07 05:43:52;;;;;;;9.00;3.40;;;10.90;99.90;;;;;;497437;239;28452;-78
2023/08/07 05:45:54;;;;;;;6.43;2.83;;;10.90;99.90;;;;;;497678;239;28524;-78
2023/08/07 05:47:55;;;;;;;5.50;3.37;;;11.00;99.90;;;;;;497678;239;28100;-78
2023/08/07 05:49:56;;;;;;;5.43;3.70;;;11.00;99.90;;;;;;497672;239;28067;-78
2023/08/07 05:51:57;;;;;;;4.87;3.70;;;11.00;99.90;;;;;;497653;239;28167;-79
2023/08/07 05:53:59;;;;;;;7.13;3.10;;;11.00;99.90;;;;;;497623;239;27960;-78
2023/08/07 05:56:00;;;;;;;7.30;3.57;;;11.00;99.90;;;;;;497692;239;28449;-78
2023/08/07 05:58:01;;;;;;;6.40;3.03;;;11.10;99.90;;;;;;497680;239;28028;-78
2023/08/07 06:00:02;;;;;;;10.70;2.97;;;11.20;99.90;;;;;;497621;239;28114;-79
2023/08/07 06:02:04;;;;;;;4.30;3.20;;;11.20;99.90;;;;;;497648;239;28608;-78
2023/08/07 06:04:05;;;;;;;5.30;3.00;;;11.30;99.90;;;;;;497663;239;28508;-79
2023/08/07 06:06:06;;;;;;;8.97;3.10;;;11.40;99.90;;;;;;497495;239;28651;-78
2023/08/07 06:08:08;;;;;;;4.17;2.77;;;11.40;99.90;;;;;;497658;239;28043;-78
2023/08/07 06:10:09;;;;;;;6.07;3.00;;;11.40;99.90;;;;;;497532;239;28306;-79
2023/08/07 06:12:10;;;;;;;6.30;2.73;;;11.40;99.90;;;;;;497642;239;28066;-78
2023/08/07 06:14:11;;;;;;;6.10;3.60;;;11.40;99.90;;;;;;497606;239;28085;-79
2023/08/07 06:16:12;;;;;;;6.13;3.30;;;11.40;99.90;;;;;;497660;239;27916;-79
2023/08/07 06:18:14;;;;;;;4.90;3.20;;;11.50;99.90;;;;;;497620;239;28292;-78
2023/08/07 06:20:15;;;;;;;4.30;2.90;;;11.60;99.90;;;;;;497605;239;28298;-79
2023/08/07 06:22:17;;;;;;;5.87;2.80;;;11.60;99.90;;;;;;497609;239;28212;-79
2023/08/07 06:24:17;;;;;;;6.47;3.30;;;11.70;99.90;;;;;;497648;239;28220;-79
2023/08/07 06:26:19;;;;;;;5.73;2.80;;;11.70;99.90;;;;;;497671;239;28882;-79
2023/08/07 06:28:20;;;;;;;4.70;3.20;;;11.70;99.90;;;;;;497637;239;28595;-78
2023/08/07 06:30:21;;;;;;;5.23;3.13;;;11.70;99.90;;;;;;497597;239;28877;-78
2023/08/07 06:32:22;;;;;;;4.23;3.10;;;11.70;99.90;;;;;;497645;239;28873;-79
2023/08/07 06:34:24;;;;;;;8.03;3.10;;;11.70;99.90;;;;;;497578;239;28035;-79
2023/08/07 06:36:25;;;;;;;7.33;2.73;;;11.70;99.90;;;;;;497639;239;28128;-79
2023/08/07 06:38:26;;;;;;;3.53;2.87;;;11.70;99.90;;;;;;497622;239;28157;-79
2023/08/07 06:40:27;;;;;;;4.60;2.90;;;11.70;99.90;;;;;;497628;239;28188;-78
2023/08/07 06:42:29;;;;;;;4.63;3.23;;;11.70;99.90;;;;;;497638;239;28541;-79
2023/08/07 06:44:30;;;;;;;7.33;3.20;;;11.70;99.90;;;;;;497645;239;28115;-79
2023/08/07 06:46:31;;;;;;;4.87;2.70;;;11.70;99.90;;;;;;497654;239;28300;-78
2023/08/07 06:48:32;;;;;;;6.27;3.20;;;11.70;99.90;;;;;;497638;239;28251;-79
2023/08/07 06:50:34;;;;;;;4.87;2.33;;;11.80;99.90;;;;;;497609;239;28072;-78
2023/08/07 06:52:35;;;;;;;5.90;2.53;;;11.80;99.90;;;;;;497671;239;28701;-79
2023/08/07 06:54:36;;;;;;;7.23;2.87;;;11.90;99.90;;;;;;497611;239;28766;-79
2023/08/07 06:56:40;;;;;;;5.00;2.73;;;11.90;99.90;;;;;;497646;239;28710;-78
2023/08/07 06:58:39;;;;;;;7.07;2.93;;;11.90;99.90;;;;;;497341;239;28280;-79
2023/08/07 07:00:40;;;;;;;4.83;2.67;;;11.90;99.90;;;;;;497635;239;28281;-78
2023/08/07 07:02:41;;;;;;;5.47;2.73;;;11.90;99.90;;;;;;497656;239;28299;-79
2023/08/07 07:04:42;;;;;;;5.53;3.43;;;12.00;99.90;;;;;;497632;239;27995;-78
2023/08/07 07:06:44;;;;;;;5.77;2.70;;;12.10;99.90;;;;;;497613;239;28185;-79
2023/08/07 07:08:45;;;;;;;4.37;2.50;;;12.20;99.90;;;;;;497609;239;28146;-79
2023/08/07 07:10:46;;;;;;;6.60;2.93;;;12.30;99.90;;;;;;497656;239;28379;-80
2023/08/07 07:12:48;;;;;;;2.67;2.47;;;12.30;99.90;;;;;;497646;239;28360;-79
2023/08/07 07:14:49;;;;;;;5.30;2.70;;;12.50;99.90;;;;;;497650;239;29237;-79
2023/08/07 07:16:50;;;;;;;8.10;2.43;;;12.60;99.90;;;;;;497651;239;28823;-79
2023/08/07 07:18:51;;;;;;;4.30;2.23;;;12.60;99.90;;;;;;497655;239;28904;-79
2023/08/07 07:20:52;;;;;;;4.60;2.87;;;12.50;99.90;;;;;;497663;239;28465;-79
2023/08/07 07:22:54;;;;;;;10.83;2.70;;;12.50;99.90;;;;;;497685;239;28284;-79
2023/08/07 07:24:55;;;;;;;4.23;2.27;;;12.60;99.90;;;;;;497695;239;28497;-79
2023/08/07 07:26:56;;;;;;;3.90;2.70;;;12.60;99.90;;;;;;497655;239;28252;-78
2023/08/07 07:28:58;;;;;;;3.43;2.33;;;12.60;99.90;;;;;;497653;239;28809;-79
2023/08/07 07:31:00;;;;;;;7.93;3.83;;;;;;;;;;497665;239;28293;-79
2023/08/07 07:33:01;;;;;;;3.50;2.20;;;12.90;99.90;;;;;;497568;239;27434;-79
2023/08/07 07:35:03;;;;;;;3.50;2.40;;;13.00;99.90;;;;;;497595;239;28295;-79
2023/08/07 07:37:04;;;;;;;7.93;2.43;;;13.10;99.90;;;;;;497527;239;28222;-79
2023/08/07 07:39:06;;;;;;;4.37;3.20;;;;;;;;;;497620;239;28143;-80
2023/08/07 07:41:11;;;;;;;4.30;2.73;;;13.20;99.90;;;;;;497627;239;27218;-79
2023/08/07 07:43:09;;;;;;;6.90;2.30;;;13.20;99.90;;;;;;497221;239;28727;-79
2023/08/07 07:45:10;;;;;;;5.80;3.17;;;13.20;99.90;;;;;;497613;239;30492;-79
2023/08/07 07:47:11;;;;;;;6.23;2.70;;;13.20;99.90;;;;;;497675;239;28279;-79
2023/08/07 07:49:12;;;;;;;4.57;2.33;;;13.00;99.90;;;;;;497617;239;28342;-79
2023/08/07 07:51:14;;;;;;;4.60;2.77;;;13.10;99.90;;;;;;497638;239;28317;-79
2023/08/07 07:53:15;;;;;;;2.90;2.37;;;13.20;99.90;;;;;;497590;239;28367;-79
2023/08/07 07:55:16;;;;;;;6.60;2.30;;;13.20;99.90;;;;;;497618;239;28169;-77
2023/08/07 07:57:17;;;;;;;3.83;2.40;;;13.30;99.90;;;;;;497680;239;28182;-79
2023/08/07 07:59:19;;;;;;;5.90;2.60;;;13.50;99.90;;;;;;497662;239;28402;-79
2023/08/07 08:01:20;;;;;;;4.90;2.30;;;13.50;99.90;;;;;;497633;239;28142;-79
2023/08/07 08:03:21;;;;;;;6.93;2.50;;;13.60;99.90;;;;;;497640;239;28345;-79
2023/08/07 08:05:22;;;;;;;4.17;2.40;;;13.70;99.90;;;;;;497627;239;28866;-79
2023/08/07 08:07:24;;;;;;;5.70;2.40;;;13.70;99.90;;;;;;497681;239;28705;-79
2023/08/07 08:09:25;;;;;;;5.87;2.50;;;13.70;99.90;;;;;;497631;239;28895;-79
2023/08/07 08:11:26;;;;;;;7.53;2.60;;;13.70;99.90;;;;;;497635;239;28919;-79
2023/08/07 08:13:27;;;;;;;3.47;2.73;;;13.70;99.90;;;;;;497638;239;28521;-79
2023/08/07 08:15:29;;;;;;;4.00;2.47;;;13.70;99.90;;;;;;497548;239;28377;-79
2023/08/07 08:17:30;;;;;;;5.80;2.60;;;13.90;99.90;;;;;;497682;239;28429;-79
2023/08/07 08:19:31;;;;;;;4.20;2.27;;;13.80;99.90;;;;;;497506;239;28380;-79
2023/08/07 08:21:32;;;;;;;4.90;2.30;;;13.90;99.90;;;;;;497654;239;28286;-79
2023/08/07 08:23:34;;;;;;;8.83;2.77;;;13.90;99.90;;;;;;497637;239;28488;-79
2023/08/07 08:25:35;;;;;;;4.53;2.80;;;14.10;99.90;;;;;;497633;239;28629;-79
2023/08/07 08:27:36;;;;;;;4.87;2.63;;;14.00;99.90;;;;;;497674;239;28244;-80
2023/08/07 08:29:37;;;;;;;3.07;2.20;;;14.10;99.90;;;;;;497648;239;28500;-80
2023/08/07 08:31:39;;;;;;;3.30;2.40;;;14.00;99.90;;;;;;497666;239;28982;-80
2023/08/07 08:33:40;;;;;;;5.13;2.60;;;14.20;99.90;;;;;;497668;239;29260;-80
2023/08/07 08:35:41;;;;;;;5.30;1.93;;;14.30;99.90;;;;;;497640;239;29502;-79
2023/08/07 08:37:42;;;;;;;5.37;2.50;;;14.40;99.90;;;;;;497649;239;28763;-80
2023/08/07 08:39:44;;;;;;;6.03;2.50;;;14.20;99.90;;;;;;497623;239;28792;-79
2023/08/07 08:41:45;;;;;;;4.53;2.60;;;14.20;99.90;;;;;;497644;239;28847;-80
2023/08/07 08:43:49;;;;;;;6.17;2.70;;;14.20;99.90;;;;;;497672;239;28789;-80
2023/08/07 08:45:47;;;;;;;3.73;2.33;;;14.20;99.90;;;;;;497437;239;28545;-79
2023/08/07 08:47:49;;;;;;;8.20;2.60;;;14.30;99.90;;;;;;497654;239;28755;-79
2023/08/07 08:49:50;;;;;;;5.80;2.27;;;14.30;99.90;;;;;;497660;239;28816;-80
2023/08/07 08:51:51;;;;;;;8.80;3.17;;;14.30;99.90;;;;;;497672;239;28447;-80
2023/08/07 08:53:53;;;;;;;2.30;2.10;;;14.50;99.90;;;;;;497681;239;28496;-79
2023/08/07 08:55:54;;;;;;;6.73;2.57;;;14.50;99.90;;;;;;497626;239;29387;-79
2023/08/07 08:57:55;;;;;;;4.87;2.30;;;14.70;99.90;;;;;;497702;239;29238;-80
2023/08/07 08:59:56;;;;;;;4.23;2.40;;;14.70;99.90;;;;;;497706;239;29306;-79
2023/08/07 09:01:57;;;;;;;3.80;2.47;;;14.70;99.90;;;;;;497658;239;28506;-79
2023/08/07 09:03:59;;;;;;;3.73;2.30;;;14.80;99.90;;;;;;497670;239;28759;-79
2023/08/07 09:06:00;;;;;;;3.90;2.17;;;14.80;99.90;;;;;;497667;239;28797;-80
2023/08/07 09:08:01;;;;;;;4.03;2.50;;;14.70;99.90;;;;;;497646;239;28750;-79
2023/08/07 09:10:02;;;;;;;3.83;2.10;;;14.70;99.90;;;;;;497623;239;28797;-79
2023/08/07 09:12:04;;;;;;;11.50;2.43;;;14.80;99.90;;;;;;497626;239;28889;-79
2023/08/07 09:14:05;;;;;;;6.53;2.77;;;14.80;99.90;;;;;;497683;239;28768;-80
2023/08/07 09:16:06;;;;;;;3.63;2.30;;;14.80;99.90;;;;;;497675;239;28865;-79
2023/08/07 09:18:11;;;;;;;5.77;2.57;;;15.00;99.90;;;;;;497692;239;28774;-80
2023/08/07 09:20:13;;;;;;;2.20;2.00;;;14.90;99.90;;;;;;497647;239;29316;-79
2023/08/07 09:22:13;;;;;;;7.03;2.57;;;15.00;99.90;;;;;;497612;239;29304;-79
2023/08/07 09:24:16;;;;;;;3.60;2.37;;;15.00;99.90;;;;;;497604;239;29986;-80
2023/08/07 09:26:15;;;;;;;3.30;2.20;;;15.10;99.90;;;;;;497525;239;28754;-79
2023/08/07 09:28:16;;;;;;;5.20;2.50;;;15.10;99.90;;;;;;497664;239;28849;-80
2023/08/07 09:30:18;;;;;;;5.37;2.60;;;15.20;99.90;;;;;;497673;239;28895;-80
2023/08/07 09:32:22;;;;;;;4.57;2.70;;;15.40;99.90;;;;;;497641;239;28813;-79
2023/08/07 09:34:20;;;;;;;3.70;2.23;;;15.40;99.90;;;;;;497468;239;28779;-79
2023/08/07 09:36:21;;;;;;;7.47;2.60;;;15.30;99.90;;;;;;497706;239;28775;-80
2023/08/07 09:38:23;;;;;;;4.73;2.20;;;15.10;99.90;;;;;;497647;239;28855;-79
2023/08/07 09:40:24;;;;;;;4.07;2.20;;;15.10;99.90;;;;;;495885;239;35865;-79
2023/08/07 09:42:25;;;;;;;3.47;2.37;;;15.00;99.90;;;;;;497657;239;27511;-80
2023/08/07 09:44:26;;;;;;;5.47;2.30;;;15.10;99.90;;;;;;497672;239;29451;-79
2023/08/07 09:46:28;;;;;;;4.63;2.20;;;15.10;99.90;;;;;;497686;239;29298;-79
2023/08/07 09:48:29;;;;;;;2.80;2.40;;;15.10;99.90;;;;;;497656;239;29307;-79
2023/08/07 09:50:31;;;;;;;2.43;2.23;;;15.10;99.90;;;;;;497672;239;28804;-80
2023/08/07 09:52:32;;;;;;;4.57;2.30;;;15.00;99.90;;;;;;497626;239;28804;-80
2023/08/07 09:54:33;;;;;;;2.40;2.20;;;15.00;99.90;;;;;;497650;239;28817;-80
2023/08/07 09:56:34;;;;;;;3.23;2.23;;;15.00;99.90;;;;;;497661;239;28771;-79
2023/08/07 09:58:35;;;;;;;2.10;1.90;;;15.00;99.90;;;;;;497650;239;29173;-79
2023/08/07 10:00:37;;;;;;;2.47;2.27;;;15.20;99.90;;;;;;497645;239;28843;-80
2023/08/07 10:02:38;;;;;;;2.60;2.17;;;15.20;99.90;;;;;;497671;239;28914;-79
2023/08/07 10:04:39;;;;;;;6.30;2.23;;;15.30;99.90;;;;;;497678;239;28800;-79
2023/08/07 10:06:40;;;;;;;4.20;2.30;;;15.50;99.90;;;;;;497664;239;28861;-80
2023/08/07 10:08:42;;;;;;;3.90;2.20;;;15.40;99.90;;;;;;497620;239;29354;-79
2023/08/07 10:10:43;;;;;;;3.70;2.00;;;15.40;99.90;;;;;;497654;239;29216;-79
2023/08/07 10:12:47;;;;;;;3.27;2.30;;;15.60;99.90;;;;;;497654;239;29276;-80
2023/08/07 10:14:45;;;;;;;2.50;2.30;;;15.80;99.90;;;;;;497405;239;28806;-80
2023/08/07 10:16:46;;;;;;;2.43;2.20;;;15.90;99.90;;;;;;497660;239;28757;-80
2023/08/07 10:18:48;;;;;;;3.67;2.40;;;16.00;99.90;;;;;;497653;239;28816;-79
2023/08/07 10:20:49;;;;;;;3.03;1.97;;;16.10;99.90;;;;;;497688;239;28762;-80
2023/08/07 10:22:50;;;;;;;3.83;2.37;;;16.30;99.90;;;;;;497680;239;28788;-79
2023/08/07 10:24:51;;;;;;;4.80;2.20;;;16.30;99.90;;;;;;497667;239;28818;-79
2023/08/07 10:26:53;;;;;;;3.20;2.17;;;16.40;99.90;;;;;;497657;239;28849;-80
2023/08/07 10:28:54;;;;;;;3.13;1.87;;;16.10;99.90;;;;;;497662;239;28760;-79
2023/08/07 10:30:55;;;;;;;2.27;2.07;;;16.20;99.90;;;;;;497651;239;28757;-80